sensor_id;sensor_type;location;lat;lon;timestamp;P1;durP1;ratioP1;P2;durP2;ratioP2
6145;SDS011;3104;50.348;7.620;2023-03-21T00:00:42;4.90;;;3.37;;
6145;SDS011;3104;50.348;7.620;2023-03-21T00:03:08;4.23;;;2.20;;
6145;SDS011;3104;50.348;7.620;2023-03-21T00:05:33;3.90;;;2.80;;
6145;SDS011;3104;50.348;7.620;2023-03-21T00:07:59;4.27;;;3.23;;
6145;SDS011;3104;50.348;7.620;2023-03-21T00:10:24;4.50;;;2.83;;
6145;SDS011;3104;50.348;7.620;2023-03-21T00:12:50;3.90;;;2.60;;
6145;SDS011;3104;50.348;7.620;2023-03-21T00:15:19;6.33;;;4.23;;
6145;SDS011;3104;50.348;7.620;2023-03-21T00:17:45;4.90;;;2.90;;
6145;SDS011;3104;50.348;7.620;2023-03-21T00:20:14;7.13;;;3.20;;
6145;SDS011;3104;50.348;7.620;2023-03-21T00:22:40;3.63;;;3.33;;
6145;SDS011;3104;50.348;7.620;2023-03-21T00:25:06;12.03;;;3.37;;
6145;SDS011;3104;50.348;7.620;2023-03-21T00:27:34;3.83;;;3.20;;
6145;SDS011;3104;50.348;7.620;2023-03-21T00:30:00;4.77;;;3.07;;
6145;SDS011;3104;50.348;7.620;2023-03-21T00:32:26;4.50;;;3.30;;
6145;SDS011;3104;50.348;7.620;2023-03-21T00:34:51;10.00;;;3.43;;
6145;SDS011;3104;50.348;7.620;2023-03-21T00:37:17;3.90;;;3.03;;
6145;SDS011;3104;50.348;7.620;2023-03-21T00:39:43;6.63;;;3.53;;
6145;SDS011;3104;50.348;7.620;2023-03-21T00:42:13;5.20;;;3.47;;
6145;SDS011;3104;50.348;7.620;2023-03-21T00:44:41;5.93;;;3.30;;
6145;SDS011;3104;50.348;7.620;2023-03-21T00:47:09;6.43;;;3.80;;
6145;SDS011;3104;50.348;7.620;2023-03-21T00:49:37;4.73;;;3.90;;
6145;SDS011;3104;50.348;7.620;2023-03-21T00:52:04;5.20;;;4.40;;
6145;SDS011;3104;50.348;7.620;2023-03-21T00:54:32;8.00;;;4.50;;
6145;SDS011;3104;50.348;7.620;2023-03-21T00:56:58;4.83;;;3.00;;
6145;SDS011;3104;50.348;7.620;2023-03-21T00:59:25;8.80;;;3.47;;
6145;SDS011;3104;50.348;7.620;2023-03-21T01:01:51;5.03;;;4.27;;
6145;SDS011;3104;50.348;7.620;2023-03-21T01:04:17;6.20;;;4.57;;
6145;SDS011;3104;50.348;7.620;2023-03-21T01:06:43;6.80;;;3.80;;
6145;SDS011;3104;50.348;7.620;2023-03-21T01:09:13;4.70;;;3.93;;
6145;SDS011;3104;50.348;7.620;2023-03-21T01:11:41;9.77;;;3.97;;
6145;SDS011;3104;50.348;7.620;2023-03-21T01:14:07;6.53;;;4.20;;
6145;SDS011;3104;50.348;7.620;2023-03-21T01:16:33;11.77;;;4.47;;
6145;SDS011;3104;50.348;7.620;2023-03-21T01:19:00;8.60;;;3.83;;
6145;SDS011;3104;50.348;7.620;2023-03-21T01:21:26;6.53;;;4.37;;
6145;SDS011;3104;50.348;7.620;2023-03-21T01:23:52;6.93;;;4.20;;
6145;SDS011;3104;50.348;7.620;2023-03-21T01:26:18;7.23;;;4.00;;
6145;SDS011;3104;50.348;7.620;2023-03-21T01:28:44;7.87;;;3.57;;
6145;SDS011;3104;50.348;7.620;2023-03-21T01:31:11;6.20;;;4.73;;
6145;SDS011;3104;50.348;7.620;2023-03-21T01:33:38;5.80;;;4.17;;
6145;SDS011;3104;50.348;7.620;2023-03-21T01:36:04;7.30;;;4.13;;
6145;SDS011;3104;50.348;7.620;2023-03-21T01:38:30;8.17;;;4.27;;
6145;SDS011;3104;50.348;7.620;2023-03-21T01:40:57;8.10;;;4.57;;
6145;SDS011;3104;50.348;7.620;2023-03-21T01:43:30;5.87;;;4.43;;
6145;SDS011;3104;50.348;7.620;2023-03-21T01:48:29;7.90;;;4.30;;
6145;SDS011;3104;50.348;7.620;2023-03-21T01:50:55;7.27;;;4.53;;
6145;SDS011;3104;50.348;7.620;2023-03-21T01:53:23;9.27;;;4.10;;
6145;SDS011;3104;50.348;7.620;2023-03-21T01:56:05;6.13;;;4.80;;
6145;SDS011;3104;50.348;7.620;2023-03-21T01:58:58;9.80;;;5.13;;
6145;SDS011;3104;50.348;7.620;2023-03-21T02:01:30;6.37;;;3.80;;
6145;SDS011;3104;50.348;7.620;2023-03-21T02:03:58;12.40;;;4.87;;
6145;SDS011;3104;50.348;7.620;2023-03-21T02:08:59;6.23;;;4.57;;
6145;SDS011;3104;50.348;7.620;2023-03-21T02:11:28;8.03;;;4.80;;
6145;SDS011;3104;50.348;7.620;2023-03-21T02:13:56;6.40;;;4.50;;
6145;SDS011;3104;50.348;7.620;2023-03-21T02:19:10;10.60;;;4.10;;
6145;SDS011;3104;50.348;7.620;2023-03-21T02:22:07;5.70;;;5.07;;
6145;SDS011;3104;50.348;7.620;2023-03-21T02:28:17;5.97;;;5.37;;
6145;SDS011;3104;50.348;7.620;2023-03-21T02:30:32;9.40;;;5.63;;
6145;SDS011;3104;50.348;7.620;2023-03-21T02:38:53;6.63;;;5.00;;
6145;SDS011;3104;50.348;7.620;2023-03-21T02:44:18;6.50;;;5.43;;
6145;SDS011;3104;50.348;7.620;2023-03-21T02:46:49;11.60;;;5.50;;
6145;SDS011;3104;50.348;7.620;2023-03-21T02:49:29;5.80;;;4.70;;
6145;SDS011;3104;50.348;7.620;2023-03-21T02:51:58;10.73;;;5.23;;
6145;SDS011;3104;50.348;7.620;2023-03-21T02:54:26;7.70;;;5.37;;
6145;SDS011;3104;50.348;7.620;2023-03-21T02:56:54;18.10;;;5.33;;
6145;SDS011;3104;50.348;7.620;2023-03-21T02:59:22;8.70;;;5.10;;
6145;SDS011;3104;50.348;7.620;2023-03-21T03:01:50;7.17;;;5.00;;
6145;SDS011;3104;50.348;7.620;2023-03-21T03:04:18;10.40;;;5.27;;
6145;SDS011;3104;50.348;7.620;2023-03-21T03:07:09;10.30;;;5.00;;
6145;SDS011;3104;50.348;7.620;2023-03-21T03:09:52;5.50;;;5.00;;
6145;SDS011;3104;50.348;7.620;2023-03-21T03:12:53;7.97;;;5.07;;
6145;SDS011;3104;50.348;7.620;2023-03-21T03:18:52;7.60;;;4.90;;
6145;SDS011;3104;50.348;7.620;2023-03-21T03:23:52;7.63;;;4.60;;
6145;SDS011;3104;50.348;7.620;2023-03-21T03:26:31;5.70;;;4.47;;
6145;SDS011;3104;50.348;7.620;2023-03-21T03:29:02;8.30;;;5.00;;
6145;SDS011;3104;50.348;7.620;2023-03-21T03:31:35;7.70;;;4.90;;
6145;SDS011;3104;50.348;7.620;2023-03-21T03:34:07;6.83;;;4.37;;
6145;SDS011;3104;50.348;7.620;2023-03-21T03:36:40;5.50;;;4.93;;
6145;SDS011;3104;50.348;7.620;2023-03-21T03:39:12;4.60;;;4.20;;
6145;SDS011;3104;50.348;7.620;2023-03-21T03:42:01;9.13;;;5.10;;
6145;SDS011;3104;50.348;7.620;2023-03-21T03:44:27;10.37;;;6.17;;
6145;SDS011;3104;50.348;7.620;2023-03-21T03:47:04;9.43;;;4.23;;
6145;SDS011;3104;50.348;7.620;2023-03-21T03:49:40;5.47;;;4.73;;
6145;SDS011;3104;50.348;7.620;2023-03-21T03:52:17;8.10;;;6.03;;
6145;SDS011;3104;50.348;7.620;2023-03-21T03:54:48;9.90;;;5.40;;
6145;SDS011;3104;50.348;7.620;2023-03-21T03:57:16;10.90;;;5.53;;
6145;SDS011;3104;50.348;7.620;2023-03-21T03:59:43;7.53;;;5.30;;
6145;SDS011;3104;50.348;7.620;2023-03-21T04:02:09;7.93;;;5.77;;
6145;SDS011;3104;50.348;7.620;2023-03-21T04:04:35;7.00;;;6.00;;
6145;SDS011;3104;50.348;7.620;2023-03-21T04:07:02;7.73;;;5.97;;
6145;SDS011;3104;50.348;7.620;2023-03-21T04:09:29;6.33;;;4.97;;
6145;SDS011;3104;50.348;7.620;2023-03-21T04:11:55;9.13;;;5.63;;
6145;SDS011;3104;50.348;7.620;2023-03-21T04:14:22;12.63;;;5.77;;
6145;SDS011;3104;50.348;7.620;2023-03-21T04:16:48;8.30;;;4.90;;
6145;SDS011;3104;50.348;7.620;2023-03-21T04:19:14;7.83;;;5.10;;
6145;SDS011;3104;50.348;7.620;2023-03-21T04:21:40;8.70;;;5.00;;
6145;SDS011;3104;50.348;7.620;2023-03-21T04:24:06;8.37;;;6.90;;
6145;SDS011;3104;50.348;7.620;2023-03-21T04:26:32;9.07;;;5.40;;
6145;SDS011;3104;50.348;7.620;2023-03-21T04:29:00;12.30;;;6.03;;
6145;SDS011;3104;50.348;7.620;2023-03-21T04:31:27;6.53;;;4.60;;
6145;SDS011;3104;50.348;7.620;2023-03-21T04:33:55;8.00;;;5.80;;
6145;SDS011;3104;50.348;7.620;2023-03-21T04:36:21;9.97;;;5.73;;
6145;SDS011;3104;50.348;7.620;2023-03-21T04:38:54;10.30;;;5.00;;
6145;SDS011;3104;50.348;7.620;2023-03-21T04:41:24;8.70;;;5.77;;
6145;SDS011;3104;50.348;7.620;2023-03-21T04:43:51;7.70;;;5.53;;
6145;SDS011;3104;50.348;7.620;2023-03-21T04:46:16;7.23;;;5.13;;
6145;SDS011;3104;50.348;7.620;2023-03-21T04:48:42;10.03;;;5.83;;
6145;SDS011;3104;50.348;7.620;2023-03-21T04:51:07;7.93;;;4.73;;
6145;SDS011;3104;50.348;7.620;2023-03-21T04:53:34;5.40;;;4.30;;
6145;SDS011;3104;50.348;7.620;2023-03-21T04:56:02;8.93;;;4.70;;
6145;SDS011;3104;50.348;7.620;2023-03-21T04:58:28;6.97;;;5.70;;
6145;SDS011;3104;50.348;7.620;2023-03-21T05:00:54;7.63;;;5.87;;
6145;SDS011;3104;50.348;7.620;2023-03-21T05:03:21;10.90;;;5.67;;
6145;SDS011;3104;50.348;7.620;2023-03-21T05:05:47;7.60;;;5.10;;
6145;SDS011;3104;50.348;7.620;2023-03-21T05:08:13;11.60;;;5.23;;
6145;SDS011;3104;50.348;7.620;2023-03-21T05:10:39;7.43;;;6.20;;
6145;SDS011;3104;50.348;7.620;2023-03-21T05:13:05;6.73;;;4.90;;
6145;SDS011;3104;50.348;7.620;2023-03-21T05:15:30;7.90;;;6.10;;
6145;SDS011;3104;50.348;7.620;2023-03-21T05:17:56;13.87;;;6.97;;
6145;SDS011;3104;50.348;7.620;2023-03-21T05:20:34;6.27;;;5.27;;
6145;SDS011;3104;50.348;7.620;2023-03-21T05:23:00;7.27;;;5.13;;
6145;SDS011;3104;50.348;7.620;2023-03-21T05:25:26;8.83;;;4.80;;
6145;SDS011;3104;50.348;7.620;2023-03-21T05:27:58;10.03;;;5.23;;
6145;SDS011;3104;50.348;7.620;2023-03-21T05:30:26;6.50;;;5.10;;
6145;SDS011;3104;50.348;7.620;2023-03-21T05:32:52;9.13;;;5.23;;
6145;SDS011;3104;50.348;7.620;2023-03-21T05:35:18;8.63;;;5.20;;
6145;SDS011;3104;50.348;7.620;2023-03-21T05:37:43;7.43;;;5.33;;
6145;SDS011;3104;50.348;7.620;2023-03-21T05:40:09;12.67;;;5.30;;
6145;SDS011;3104;50.348;7.620;2023-03-21T05:42:35;8.60;;;4.70;;
6145;SDS011;3104;50.348;7.620;2023-03-21T05:45:01;5.93;;;4.23;;
6145;SDS011;3104;50.348;7.620;2023-03-21T05:47:26;6.73;;;4.77;;
6145;SDS011;3104;50.348;7.620;2023-03-21T05:49:52;11.80;;;4.77;;
6145;SDS011;3104;50.348;7.620;2023-03-21T05:52:18;5.90;;;4.33;;
6145;SDS011;3104;50.348;7.620;2023-03-21T05:54:43;9.57;;;5.47;;
6145;SDS011;3104;50.348;7.620;2023-03-21T05:57:09;5.37;;;4.00;;
6145;SDS011;3104;50.348;7.620;2023-03-21T05:59:35;8.27;;;4.70;;
6145;SDS011;3104;50.348;7.620;2023-03-21T06:02:00;9.43;;;4.77;;
6145;SDS011;3104;50.348;7.620;2023-03-21T06:04:26;5.67;;;4.40;;
6145;SDS011;3104;50.348;7.620;2023-03-21T06:06:52;9.30;;;4.70;;
6145;SDS011;3104;50.348;7.620;2023-03-21T06:09:19;6.97;;;4.57;;
6145;SDS011;3104;50.348;7.620;2023-03-21T06:11:46;9.40;;;4.53;;
6145;SDS011;3104;50.348;7.620;2023-03-21T06:14:13;6.43;;;5.07;;
6145;SDS011;3104;50.348;7.620;2023-03-21T06:16:39;5.43;;;4.80;;
6145;SDS011;3104;50.348;7.620;2023-03-21T06:19:05;6.87;;;5.10;;
6145;SDS011;3104;50.348;7.620;2023-03-21T06:21:30;7.93;;;5.13;;
6145;SDS011;3104;50.348;7.620;2023-03-21T06:23:56;5.30;;;4.77;;
6145;SDS011;3104;50.348;7.620;2023-03-21T06:26:21;15.17;;;6.03;;
6145;SDS011;3104;50.348;7.620;2023-03-21T06:28:48;12.20;;;6.07;;
6145;SDS011;3104;50.348;7.620;2023-03-21T06:31:14;9.63;;;7.13;;
6145;SDS011;3104;50.348;7.620;2023-03-21T06:33:40;9.30;;;5.20;;
6145;SDS011;3104;50.348;7.620;2023-03-21T06:36:06;8.90;;;5.70;;
6145;SDS011;3104;50.348;7.620;2023-03-21T06:38:32;14.47;;;4.90;;
6145;SDS011;3104;50.348;7.620;2023-03-21T06:41:01;8.40;;;4.60;;
6145;SDS011;3104;50.348;7.620;2023-03-21T06:43:31;8.10;;;5.60;;
6145;SDS011;3104;50.348;7.620;2023-03-21T06:45:57;9.73;;;4.90;;
6145;SDS011;3104;50.348;7.620;2023-03-21T06:48:23;7.07;;;4.67;;
6145;SDS011;3104;50.348;7.620;2023-03-21T06:50:49;10.17;;;4.87;;
6145;SDS011;3104;50.348;7.620;2023-03-21T06:53:16;10.83;;;5.07;;
6145;SDS011;3104;50.348;7.620;2023-03-21T06:55:47;8.33;;;4.60;;
6145;SDS011;3104;50.348;7.620;2023-03-21T06:58:14;6.23;;;4.30;;
6145;SDS011;3104;50.348;7.620;2023-03-21T07:00:39;8.10;;;4.40;;
6145;SDS011;3104;50.348;7.620;2023-03-21T07:03:05;7.13;;;4.87;;
6145;SDS011;3104;50.348;7.620;2023-03-21T07:05:31;5.97;;;4.43;;
6145;SDS011;3104;50.348;7.620;2023-03-21T07:07:58;5.20;;;4.70;;
6145;SDS011;3104;50.348;7.620;2023-03-21T07:10:25;5.83;;;4.47;;
6145;SDS011;3104;50.348;7.620;2023-03-21T07:12:50;5.83;;;5.07;;
6145;SDS011;3104;50.348;7.620;2023-03-21T07:15:16;7.73;;;4.23;;
6145;SDS011;3104;50.348;7.620;2023-03-21T07:17:42;8.90;;;4.40;;
6145;SDS011;3104;50.348;7.620;2023-03-21T07:20:07;5.30;;;4.30;;
6145;SDS011;3104;50.348;7.620;2023-03-21T07:22:34;7.70;;;4.90;;
6145;SDS011;3104;50.348;7.620;2023-03-21T07:25:00;13.10;;;4.83;;
6145;SDS011;3104;50.348;7.620;2023-03-21T07:27:25;7.47;;;4.50;;
6145;SDS011;3104;50.348;7.620;2023-03-21T07:29:51;7.93;;;4.30;;
6145;SDS011;3104;50.348;7.620;2023-03-21T07:32:16;15.47;;;5.03;;
6145;SDS011;3104;50.348;7.620;2023-03-21T07:34:42;8.40;;;4.87;;
6145;SDS011;3104;50.348;7.620;2023-03-21T07:37:07;8.30;;;4.70;;
6145;SDS011;3104;50.348;7.620;2023-03-21T07:39:33;9.50;;;4.70;;
6145;SDS011;3104;50.348;7.620;2023-03-21T07:42:00;8.07;;;5.43;;
6145;SDS011;3104;50.348;7.620;2023-03-21T07:44:26;5.13;;;4.60;;
6145;SDS011;3104;50.348;7.620;2023-03-21T07:46:53;8.53;;;4.43;;
6145;SDS011;3104;50.348;7.620;2023-03-21T07:49:18;6.37;;;4.97;;
6145;SDS011;3104;50.348;7.620;2023-03-21T07:51:44;7.17;;;4.90;;
6145;SDS011;3104;50.348;7.620;2023-03-21T07:54:10;6.27;;;4.93;;
6145;SDS011;3104;50.348;7.620;2023-03-21T07:56:35;8.03;;;3.97;;
6145;SDS011;3104;50.348;7.620;2023-03-21T07:59:01;9.07;;;4.63;;
6145;SDS011;3104;50.348;7.620;2023-03-21T08:01:27;10.70;;;6.20;;
6145;SDS011;3104;50.348;7.620;2023-03-21T08:03:52;7.50;;;4.60;;
6145;SDS011;3104;50.348;7.620;2023-03-21T08:06:21;7.97;;;5.23;;
6145;SDS011;3104;50.348;7.620;2023-03-21T08:08:51;8.53;;;5.57;;
6145;SDS011;3104;50.348;7.620;2023-03-21T08:11:16;6.27;;;4.13;;
6145;SDS011;3104;50.348;7.620;2023-03-21T08:13:42;10.23;;;6.30;;
6145;SDS011;3104;50.348;7.620;2023-03-21T08:16:08;8.43;;;5.17;;
6145;SDS011;3104;50.348;7.620;2023-03-21T08:18:33;5.80;;;4.07;;
6145;SDS011;3104;50.348;7.620;2023-03-21T08:20:59;7.20;;;4.60;;
6145;SDS011;3104;50.348;7.620;2023-03-21T08:23:25;7.87;;;4.80;;
6145;SDS011;3104;50.348;7.620;2023-03-21T08:25:51;9.13;;;5.17;;
6145;SDS011;3104;50.348;7.620;2023-03-21T08:28:18;10.07;;;7.30;;
6145;SDS011;3104;50.348;7.620;2023-03-21T08:30:44;9.80;;;5.30;;
6145;SDS011;3104;50.348;7.620;2023-03-21T08:33:10;8.80;;;5.50;;
6145;SDS011;3104;50.348;7.620;2023-03-21T08:35:37;7.50;;;4.37;;
6145;SDS011;3104;50.348;7.620;2023-03-21T08:38:03;8.67;;;5.63;;
6145;SDS011;3104;50.348;7.620;2023-03-21T08:40:29;8.77;;;4.13;;
6145;SDS011;3104;50.348;7.620;2023-03-21T08:42:54;11.00;;;5.00;;
6145;SDS011;3104;50.348;7.620;2023-03-21T08:45:20;11.57;;;5.30;;
6145;SDS011;3104;50.348;7.620;2023-03-21T08:47:46;7.13;;;5.80;;
6145;SDS011;3104;50.348;7.620;2023-03-21T08:50:14;9.27;;;5.17;;
6145;SDS011;3104;50.348;7.620;2023-03-21T08:52:42;7.30;;;5.00;;
6145;SDS011;3104;50.348;7.620;2023-03-21T08:55:08;6.90;;;4.70;;
6145;SDS011;3104;50.348;7.620;2023-03-21T08:57:34;5.03;;;4.37;;
6145;SDS011;3104;50.348;7.620;2023-03-21T09:00:00;7.73;;;5.30;;
6145;SDS011;3104;50.348;7.620;2023-03-21T09:02:31;10.17;;;5.40;;
6145;SDS011;3104;50.348;7.620;2023-03-21T09:04:56;5.93;;;4.53;;
6145;SDS011;3104;50.348;7.620;2023-03-21T09:07:22;7.80;;;4.87;;
6145;SDS011;3104;50.348;7.620;2023-03-21T09:09:50;8.63;;;5.43;;
6145;SDS011;3104;50.348;7.620;2023-03-21T09:12:17;8.07;;;4.47;;
6145;SDS011;3104;50.348;7.620;2023-03-21T09:14:42;9.00;;;4.67;;
6145;SDS011;3104;50.348;7.620;2023-03-21T09:17:08;7.47;;;4.80;;
6145;SDS011;3104;50.348;7.620;2023-03-21T09:19:33;9.20;;;5.17;;
6145;SDS011;3104;50.348;7.620;2023-03-21T09:21:59;6.30;;;4.53;;
6145;SDS011;3104;50.348;7.620;2023-03-21T09:24:25;7.93;;;4.67;;
6145;SDS011;3104;50.348;7.620;2023-03-21T09:26:50;11.93;;;5.40;;
6145;SDS011;3104;50.348;7.620;2023-03-21T09:29:17;7.10;;;4.60;;
6145;SDS011;3104;50.348;7.620;2023-03-21T09:31:44;7.53;;;4.97;;
6145;SDS011;3104;50.348;7.620;2023-03-21T09:34:11;8.47;;;4.53;;
6145;SDS011;3104;50.348;7.620;2023-03-21T09:36:39;6.40;;;4.67;;
6145;SDS011;3104;50.348;7.620;2023-03-21T09:39:06;4.77;;;4.37;;
6145;SDS011;3104;50.348;7.620;2023-03-21T09:47:23;8.20;;;4.90;;
6145;SDS011;3104;50.348;7.620;2023-03-21T09:50:01;4.87;;;4.33;;
6145;SDS011;3104;50.348;7.620;2023-03-21T09:52:36;5.57;;;5.00;;
6145;SDS011;3104;50.348;7.620;2023-03-21T09:55:14;6.17;;;4.67;;
6145;SDS011;3104;50.348;7.620;2023-03-21T09:57:47;7.17;;;4.70;;
6145;SDS011;3104;50.348;7.620;2023-03-21T10:00:19;6.40;;;4.90;;
6145;SDS011;3104;50.348;7.620;2023-03-21T10:02:50;9.43;;;4.43;;
6145;SDS011;3104;50.348;7.620;2023-03-21T10:05:29;8.47;;;4.60;;
6145;SDS011;3104;50.348;7.620;2023-03-21T10:08:07;7.80;;;4.90;;
6145;SDS011;3104;50.348;7.620;2023-03-21T10:10:38;7.67;;;4.67;;
6145;SDS011;3104;50.348;7.620;2023-03-21T10:13:13;5.80;;;4.90;;
6145;SDS011;3104;50.348;7.620;2023-03-21T10:15:57;9.57;;;4.93;;
6145;SDS011;3104;50.348;7.620;2023-03-21T10:18:29;9.00;;;5.47;;
6145;SDS011;3104;50.348;7.620;2023-03-21T10:20:55;7.27;;;5.00;;
6145;SDS011;3104;50.348;7.620;2023-03-21T10:23:21;10.40;;;5.37;;
6145;SDS011;3104;50.348;7.620;2023-03-21T10:25:54;8.67;;;4.80;;
6145;SDS011;3104;50.348;7.620;2023-03-21T10:28:27;6.50;;;4.83;;
6145;SDS011;3104;50.348;7.620;2023-03-21T10:31:00;6.80;;;5.83;;
6145;SDS011;3104;50.348;7.620;2023-03-21T10:33:31;9.50;;;5.43;;
6145;SDS011;3104;50.348;7.620;2023-03-21T10:36:07;10.53;;;5.47;;
6145;SDS011;3104;50.348;7.620;2023-03-21T10:38:36;10.53;;;5.60;;
6145;SDS011;3104;50.348;7.620;2023-03-21T10:41:05;10.20;;;6.80;;
6145;SDS011;3104;50.348;7.620;2023-03-21T10:43:32;6.07;;;5.33;;
6145;SDS011;3104;50.348;7.620;2023-03-21T10:48:49;15.17;;;5.23;;
6145;SDS011;3104;50.348;7.620;2023-03-21T10:51:25;6.90;;;4.13;;
6145;SDS011;3104;50.348;7.620;2023-03-21T10:53:57;7.67;;;5.37;;
6145;SDS011;3104;50.348;7.620;2023-03-21T10:56:34;4.70;;;4.30;;
6145;SDS011;3104;50.348;7.620;2023-03-21T10:59:01;6.50;;;5.30;;
6145;SDS011;3104;50.348;7.620;2023-03-21T11:04:36;16.10;;;11.90;;
6145;SDS011;3104;50.348;7.620;2023-03-21T11:07:02;81.80;;;50.83;;
6145;SDS011;3104;50.348;7.620;2023-03-21T11:09:46;82.43;;;57.03;;
6145;SDS011;3104;50.348;7.620;2023-03-21T11:12:15;64.20;;;43.33;;
6145;SDS011;3104;50.348;7.620;2023-03-21T11:14:43;7.60;;;6.60;;
6145;SDS011;3104;50.348;7.620;2023-03-21T11:19:45;4.97;;;4.50;;
6145;SDS011;3104;50.348;7.620;2023-03-21T11:22:12;24.90;;;22.63;;
6145;SDS011;3104;50.348;7.620;2023-03-21T11:24:39;13.23;;;11.60;;
6145;SDS011;3104;50.348;7.620;2023-03-21T11:27:07;9.30;;;6.50;;
6145;SDS011;3104;50.348;7.620;2023-03-21T11:29:36;15.33;;;14.03;;
6145;SDS011;3104;50.348;7.620;2023-03-21T11:32:24;9.43;;;5.23;;
6145;SDS011;3104;50.348;7.620;2023-03-21T11:34:56;6.50;;;5.93;;
6145;SDS011;3104;50.348;7.620;2023-03-21T11:40:16;5.17;;;4.20;;
6145;SDS011;3104;50.348;7.620;2023-03-21T11:42:46;4.37;;;3.97;;
6145;SDS011;3104;50.348;7.620;2023-03-21T11:45:17;9.13;;;4.60;;
6145;SDS011;3104;50.348;7.620;2023-03-21T11:47:46;8.07;;;4.20;;
6145;SDS011;3104;50.348;7.620;2023-03-21T11:50:26;4.20;;;3.50;;
6145;SDS011;3104;50.348;7.620;2023-03-21T11:55:48;5.97;;;3.47;;
6145;SDS011;3104;50.348;7.620;2023-03-21T11:58:34;5.20;;;3.50;;
6145;SDS011;3104;50.348;7.620;2023-03-21T12:06:24;6.07;;;4.70;;
6145;SDS011;3104;50.348;7.620;2023-03-21T12:11:58;8.90;;;3.70;;
6145;SDS011;3104;50.348;7.620;2023-03-21T12:17:23;4.60;;;3.87;;
6145;SDS011;3104;50.348;7.620;2023-03-21T12:20:36;5.93;;;4.87;;
6145;SDS011;3104;50.348;7.620;2023-03-21T12:26:11;8.73;;;4.23;;
6145;SDS011;3104;50.348;7.620;2023-03-21T12:36:57;5.83;;;4.57;;
6145;SDS011;3104;50.348;7.620;2023-03-21T12:39:40;4.17;;;3.60;;
6145;SDS011;3104;50.348;7.620;2023-03-21T12:45:01;8.53;;;4.03;;
6145;SDS011;3104;50.348;7.620;2023-03-21T12:47:35;6.47;;;4.33;;
6145;SDS011;3104;50.348;7.620;2023-03-21T12:50:18;6.40;;;3.90;;
6145;SDS011;3104;50.348;7.620;2023-03-21T12:52:51;3.97;;;3.67;;
6145;SDS011;3104;50.348;7.620;2023-03-21T12:55:30;6.90;;;3.80;;
6145;SDS011;3104;50.348;7.620;2023-03-21T12:58:02;3.97;;;3.67;;
6145;SDS011;3104;50.348;7.620;2023-03-21T13:00:35;6.03;;;4.10;;
6145;SDS011;3104;50.348;7.620;2023-03-21T13:03:14;5.70;;;4.07;;
6145;SDS011;3104;50.348;7.620;2023-03-21T13:10:45;4.63;;;3.40;;
6145;SDS011;3104;50.348;7.620;2023-03-21T13:18:46;5.53;;;3.93;;
6145;SDS011;3104;50.348;7.620;2023-03-21T13:21:20;9.53;;;4.27;;
6145;SDS011;3104;50.348;7.620;2023-03-21T13:24:23;6.63;;;4.63;;
6145;SDS011;3104;50.348;7.620;2023-03-21T13:26:49;3.70;;;3.40;;
6145;SDS011;3104;50.348;7.620;2023-03-21T13:29:59;6.03;;;4.07;;
6145;SDS011;3104;50.348;7.620;2023-03-21T13:32:38;6.80;;;4.13;;
6145;SDS011;3104;50.348;7.620;2023-03-21T13:37:43;3.83;;;3.50;;
6145;SDS011;3104;50.348;7.620;2023-03-21T13:40:20;5.90;;;3.93;;
6145;SDS011;3104;50.348;7.620;2023-03-21T13:42:58;6.90;;;5.33;;
6145;SDS011;3104;50.348;7.620;2023-03-21T13:48:11;6.53;;;4.60;;
6145;SDS011;3104;50.348;7.620;2023-03-21T13:50:52;4.23;;;3.60;;
6145;SDS011;3104;50.348;7.620;2023-03-21T13:53:29;5.43;;;4.00;;
6145;SDS011;3104;50.348;7.620;2023-03-21T13:56:06;5.80;;;3.90;;
6145;SDS011;3104;50.348;7.620;2023-03-21T14:04:25;4.40;;;3.93;;
6145;SDS011;3104;50.348;7.620;2023-03-21T14:09:24;8.10;;;4.00;;
6145;SDS011;3104;50.348;7.620;2023-03-21T14:11:56;4.40;;;3.80;;
6145;SDS011;3104;50.348;7.620;2023-03-21T14:14:25;3.80;;;3.40;;
6145;SDS011;3104;50.348;7.620;2023-03-21T14:16:56;4.60;;;3.60;;
6145;SDS011;3104;50.348;7.620;2023-03-21T14:19:27;5.43;;;4.20;;
6145;SDS011;3104;50.348;7.620;2023-03-21T14:21:53;5.30;;;4.63;;
6145;SDS011;3104;50.348;7.620;2023-03-21T14:24:19;5.80;;;4.70;;
6145;SDS011;3104;50.348;7.620;2023-03-21T14:26:47;5.17;;;4.67;;
6145;SDS011;3104;50.348;7.620;2023-03-21T14:31:50;6.33;;;5.13;;
6145;SDS011;3104;50.348;7.620;2023-03-21T14:34:17;7.50;;;5.73;;
6145;SDS011;3104;50.348;7.620;2023-03-21T14:36:43;7.00;;;6.27;;
6145;SDS011;3104;50.348;7.620;2023-03-21T14:39:11;5.17;;;4.67;;
6145;SDS011;3104;50.348;7.620;2023-03-21T14:41:45;4.93;;;4.43;;
6145;SDS011;3104;50.348;7.620;2023-03-21T14:44:18;4.33;;;3.73;;
6145;SDS011;3104;50.348;7.620;2023-03-21T14:49:53;4.50;;;4.03;;
6145;SDS011;3104;50.348;7.620;2023-03-21T14:52:28;4.83;;;4.43;;
6145;SDS011;3104;50.348;7.620;2023-03-21T14:54:55;4.70;;;4.30;;
6145;SDS011;3104;50.348;7.620;2023-03-21T14:57:23;10.40;;;4.37;;
6145;SDS011;3104;50.348;7.620;2023-03-21T14:59:53;6.27;;;4.43;;
6145;SDS011;3104;50.348;7.620;2023-03-21T15:02:22;6.80;;;4.73;;
6145;SDS011;3104;50.348;7.620;2023-03-21T15:04:52;6.23;;;4.37;;
6145;SDS011;3104;50.348;7.620;2023-03-21T15:07:31;4.50;;;4.10;;
6145;SDS011;3104;50.348;7.620;2023-03-21T15:09:59;5.93;;;4.17;;
6145;SDS011;3104;50.348;7.620;2023-03-21T15:12:28;4.60;;;4.17;;
6145;SDS011;3104;50.348;7.620;2023-03-21T15:14:54;5.13;;;4.63;;
6145;SDS011;3104;50.348;7.620;2023-03-21T15:17:21;5.43;;;4.90;;
6145;SDS011;3104;50.348;7.620;2023-03-21T15:19:47;6.77;;;5.03;;
6145;SDS011;3104;50.348;7.620;2023-03-21T15:25:00;5.20;;;4.70;;
6145;SDS011;3104;50.348;7.620;2023-03-21T15:27:29;10.67;;;8.20;;
6145;SDS011;3104;50.348;7.620;2023-03-21T15:29:58;12.80;;;11.60;;
6145;SDS011;3104;50.348;7.620;2023-03-21T15:32:25;5.20;;;4.43;;
6145;SDS011;3104;50.348;7.620;2023-03-21T15:34:52;6.80;;;5.17;;
6145;SDS011;3104;50.348;7.620;2023-03-21T15:37:21;6.27;;;5.60;;
6145;SDS011;3104;50.348;7.620;2023-03-21T15:39:50;4.40;;;4.00;;
6145;SDS011;3104;50.348;7.620;2023-03-21T15:42:33;6.03;;;5.53;;
6145;SDS011;3104;50.348;7.620;2023-03-21T15:45:44;6.03;;;5.43;;
6145;SDS011;3104;50.348;7.620;2023-03-21T15:52:53;6.17;;;5.50;;
6145;SDS011;3104;50.348;7.620;2023-03-21T15:55:21;5.10;;;4.00;;
6145;SDS011;3104;50.348;7.620;2023-03-21T15:57:50;11.80;;;8.70;;
6145;SDS011;3104;50.348;7.620;2023-03-21T16:00:22;7.47;;;5.40;;
6145;SDS011;3104;50.348;7.620;2023-03-21T16:03:01;30.40;;;20.00;;
6145;SDS011;3104;50.348;7.620;2023-03-21T16:05:34;6.00;;;4.70;;
6145;SDS011;3104;50.348;7.620;2023-03-21T16:08:16;6.10;;;4.97;;
6145;SDS011;3104;50.348;7.620;2023-03-21T16:10:44;6.73;;;5.97;;
6145;SDS011;3104;50.348;7.620;2023-03-21T16:13:10;6.33;;;5.73;;
6145;SDS011;3104;50.348;7.620;2023-03-21T16:15:39;7.20;;;6.60;;
6145;SDS011;3104;50.348;7.620;2023-03-21T16:18:05;8.93;;;6.93;;
6145;SDS011;3104;50.348;7.620;2023-03-21T16:20:33;5.33;;;4.93;;
6145;SDS011;3104;50.348;7.620;2023-03-21T16:23:12;4.47;;;4.00;;
6145;SDS011;3104;50.348;7.620;2023-03-21T16:25:39;5.40;;;4.90;;
6145;SDS011;3104;50.348;7.620;2023-03-21T16:28:13;6.37;;;4.33;;
6145;SDS011;3104;50.348;7.620;2023-03-21T16:30:40;4.83;;;4.43;;
6145;SDS011;3104;50.348;7.620;2023-03-21T16:33:08;4.80;;;4.20;;
6145;SDS011;3104;50.348;7.620;2023-03-21T16:35:35;5.50;;;4.60;;
6145;SDS011;3104;50.348;7.620;2023-03-21T16:38:00;6.70;;;4.87;;
6145;SDS011;3104;50.348;7.620;2023-03-21T16:40:31;5.03;;;4.53;;
6145;SDS011;3104;50.348;7.620;2023-03-21T16:42:59;7.40;;;4.80;;
6145;SDS011;3104;50.348;7.620;2023-03-21T16:45:25;6.00;;;4.33;;
6145;SDS011;3104;50.348;7.620;2023-03-21T16:47:52;5.90;;;4.67;;
6145;SDS011;3104;50.348;7.620;2023-03-21T16:50:20;5.23;;;3.90;;
6145;SDS011;3104;50.348;7.620;2023-03-21T16:52:50;5.03;;;4.37;;
6145;SDS011;3104;50.348;7.620;2023-03-21T16:55:17;5.50;;;4.27;;
6145;SDS011;3104;50.348;7.620;2023-03-21T16:57:43;3.90;;;3.60;;
6145;SDS011;3104;50.348;7.620;2023-03-21T17:00:14;5.53;;;4.10;;
6145;SDS011;3104;50.348;7.620;2023-03-21T17:02:44;5.07;;;3.80;;
6145;SDS011;3104;50.348;7.620;2023-03-21T17:05:10;4.50;;;4.10;;
6145;SDS011;3104;50.348;7.620;2023-03-21T17:07:36;4.27;;;3.87;;
6145;SDS011;3104;50.348;7.620;2023-03-21T17:10:02;3.73;;;3.43;;
6145;SDS011;3104;50.348;7.620;2023-03-21T17:12:29;7.03;;;3.90;;
6145;SDS011;3104;50.348;7.620;2023-03-21T17:14:54;5.70;;;4.60;;